createdAt,value
2018-12-27T00:00:23.770Z,38.60
2018-12-27T00:01:23.758Z,38.60
2018-12-27T00:02:23.777Z,38.80
2018-12-27T00:03:23.733Z,38.40
2018-12-27T00:04:23.720Z,42.20
2018-12-27T00:05:23.706Z,45.80
2018-12-27T00:06:23.710Z,43.20
2018-12-27T00:07:23.709Z,40.10
2018-12-27T00:08:23.687Z,41.20
2018-12-27T00:09:23.681Z,39.00
2018-12-27T00:10:23.660Z,42.50
2018-12-27T00:11:23.648Z,41.40
2018-12-27T00:12:23.653Z,39.80
2018-12-27T00:13:23.633Z,42.30
2018-12-27T00:14:23.622Z,40.10
2018-12-27T00:16:33.113Z,39.10
2018-12-27T00:17:34.129Z,46.40
2018-12-27T00:18:34.090Z,42.20
2018-12-27T00:19:34.077Z,41.60
2018-12-27T00:20:34.061Z,39.40
2018-12-27T00:21:34.048Z,41.70
2018-12-27T00:22:34.067Z,41.20
2018-12-27T00:23:34.035Z,43.40
2018-12-27T00:24:34.016Z,41.70
2018-12-27T00:25:34.015Z,43.00
2018-12-27T00:26:34.002Z,44.10
2018-12-27T00:27:33.981Z,44.80
2018-12-27T00:28:34.193Z,47.60
2018-12-27T00:29:33.964Z,41.70
2018-12-27T00:30:33.953Z,40.20
2018-12-27T00:31:33.944Z,44.70
2018-12-27T00:32:33.952Z,43.70
2018-12-27T00:33:33.938Z,41.90
2018-12-27T00:34:33.914Z,40.50
2018-12-27T00:35:33.901Z,44.70
2018-12-27T00:36:33.893Z,46.20
2018-12-27T00:37:33.912Z,44.30
2018-12-27T00:38:33.891Z,39.90
2018-12-27T00:39:33.861Z,44.80
2018-12-27T00:40:33.851Z,46.70
2018-12-27T00:41:33.837Z,45.10
2018-12-27T00:42:33.824Z,43.60
2018-12-27T00:43:33.833Z,46.20
2018-12-27T00:44:33.804Z,48.00
2018-12-27T00:45:33.798Z,43.90
2018-12-27T00:46:33.777Z,48.50
2018-12-27T00:47:33.779Z,48.90
2018-12-27T00:48:33.788Z,44.50
2018-12-27T00:49:33.765Z,45.30
2018-12-27T00:50:33.738Z,46.10
2018-12-27T00:51:34.565Z,44.60
2018-12-27T00:52:33.719Z,46.80
2018-12-27T00:53:33.733Z,51.20
2018-12-27T00:54:33.700Z,49.70
2018-12-27T00:55:33.681Z,50.60
2018-12-27T00:56:33.679Z,49.70
2018-12-27T00:57:33.672Z,52.90
2018-12-27T00:58:33.675Z,53.40
2018-12-27T00:59:33.653Z,49.70
2018-12-27T01:00:33.641Z,49.30
2018-12-27T01:01:33.619Z,50.20
2018-12-27T01:02:33.608Z,58.00
2018-12-27T01:03:33.616Z,52.90
2018-12-27T01:04:33.595Z,52.30
2018-12-27T01:05:33.575Z,53.50
2018-12-27T01:06:33.576Z,57.00
2018-12-27T01:07:33.555Z,60.10
2018-12-27T01:08:33.587Z,56.50
2018-12-27T01:09:33.542Z,60.30
2018-12-27T01:10:33.541Z,59.10
2018-12-27T01:11:33.529Z,58.90
2018-12-27T01:12:33.504Z,55.00
2018-12-27T01:13:33.525Z,63.20
2018-12-27T01:14:33.509Z,63.10
2018-12-27T01:15:33.471Z,57.40
2018-12-27T01:16:33.504Z,57.60
2018-12-27T01:17:33.446Z,60.60
2018-12-27T01:18:33.457Z,64.10
2018-12-27T01:19:33.441Z,64.00
2018-12-27T01:20:33.429Z,70.70
2018-12-27T01:21:33.414Z,61.60
2018-12-27T01:22:33.394Z,66.10
2018-12-27T01:23:33.400Z,65.70
2018-12-27T01:24:33.378Z,64.90
2018-12-27T01:25:33.361Z,61.90
2018-12-27T01:26:33.352Z,64.00
2018-12-27T01:27:33.353Z,63.00
2018-12-27T01:28:33.358Z,62.10
2018-12-27T01:29:33.322Z,61.00
2018-12-27T01:30:33.312Z,62.50
2018-12-27T01:31:33.309Z,58.70
2018-12-27T01:32:33.292Z,62.50
2018-12-27T01:33:33.296Z,61.60
2018-12-27T01:34:33.265Z,65.90
2018-12-27T01:35:33.266Z,68.60
2018-12-27T01:36:33.252Z,72.60
2018-12-27T01:37:33.235Z,72.70
2018-12-27T01:38:33.251Z,72.90
2018-12-27T01:39:33.243Z,71.60
2018-12-27T01:40:33.203Z,77.10
2018-12-27T01:41:33.191Z,78.00
2018-12-27T01:42:33.208Z,86.80
2018-12-27T01:43:33.193Z,80.20
2018-12-27T01:44:33.164Z,67.40
2018-12-27T01:45:33.148Z,68.00
2018-12-27T01:46:33.141Z,66.70
2018-12-27T01:47:33.148Z,74.20
2018-12-27T01:48:33.141Z,65.30
2018-12-27T01:49:33.117Z,72.60
2018-12-27T01:50:33.097Z,72.50
2018-12-27T01:51:33.093Z,72.30
2018-12-27T01:52:33.081Z,78.10
2018-12-27T01:53:33.081Z,81.60
2018-12-27T01:54:33.061Z,79.90
2018-12-27T01:55:33.046Z,67.80
2018-12-27T01:56:33.027Z,69.70
2018-12-27T01:57:33.017Z,68.20
2018-12-27T01:58:33.003Z,74.40
2018-12-27T01:59:33.006Z,77.10
2018-12-27T02:00:32.987Z,72.50
2018-12-27T02:01:32.978Z,76.50
2018-12-27T02:02:32.962Z,70.90
2018-12-27T02:03:32.966Z,72.10
2018-12-27T02:04:32.981Z,66.80
2018-12-27T02:05:32.936Z,90.80
2018-12-27T02:06:32.930Z,83.80
2018-12-27T02:07:32.906Z,82.50
2018-12-27T02:08:32.911Z,72.40
2018-12-27T02:09:32.919Z,80.10
2018-12-27T02:10:32.883Z,72.30
2018-12-27T02:11:32.873Z,80.00
2018-12-27T02:12:32.861Z,78.90
2018-12-27T02:13:32.855Z,76.20
2018-12-27T02:14:32.863Z,67.10
2018-12-27T02:15:32.836Z,76.10
2018-12-27T02:17:42.013Z,67.90
2018-12-27T02:18:42.990Z,73.10
2018-12-27T02:19:43.017Z,79.70
2018-12-27T02:20:42.980Z,74.80
2018-12-27T02:21:42.962Z,71.30
2018-12-27T02:22:42.963Z,71.20
2018-12-27T02:23:42.955Z,80.00
2018-12-27T02:24:42.960Z,70.10
2018-12-27T02:25:42.918Z,71.70
2018-12-27T02:26:42.911Z,74.00
2018-12-27T02:27:42.907Z,78.50
2018-12-27T02:28:42.881Z,67.30
2018-12-27T02:29:42.905Z,73.40
2018-12-27T02:30:42.874Z,72.90
2018-12-27T02:31:42.857Z,64.30
2018-12-27T02:32:42.852Z,84.30
2018-12-27T02:33:42.841Z,81.90
2018-12-27T02:34:42.852Z,78.60
2018-12-27T02:35:42.876Z,71.70
2018-12-27T02:36:42.841Z,79.80
2018-12-27T02:37:42.788Z,79.10
2018-12-27T02:38:43.752Z,69.30
2018-12-27T02:39:42.804Z,69.50
2018-12-27T02:40:42.759Z,72.60
2018-12-27T02:41:42.749Z,70.90
2018-12-27T02:42:42.729Z,74.80
2018-12-27T02:43:42.726Z,80.40
2018-12-27T02:44:42.743Z,86.60
2018-12-27T02:45:42.705Z,79.60
2018-12-27T02:46:42.701Z,77.30
2018-12-27T02:47:42.684Z,85.60
2018-12-27T02:48:42.670Z,80.30
2018-12-27T02:49:42.691Z,92.90
2018-12-27T02:50:42.666Z,84.70
2018-12-27T02:51:42.650Z,85.30
2018-12-27T02:52:42.630Z,83.00
2018-12-27T02:53:42.627Z,96.60
2018-12-27T02:54:42.626Z,93.50
2018-12-27T02:55:42.608Z,83.00
2018-12-27T02:56:42.582Z,76.60
2018-12-27T02:57:42.566Z,88.60
2018-12-27T02:58:42.555Z,84.50
2018-12-27T02:59:42.585Z,93.20
2018-12-27T03:00:42.547Z,94.20
2018-12-27T03:01:42.527Z,95.30
2018-12-27T03:02:42.522Z,97.90
2018-12-27T03:03:43.982Z,94.90
2018-12-27T03:04:42.522Z,124.90
2018-12-27T03:05:42.500Z,96.70
2018-12-27T03:06:42.479Z,130.00
2018-12-27T03:07:42.464Z,129.90
2018-12-27T03:08:42.457Z,104.30
2018-12-27T03:09:42.462Z,112.30
2018-12-27T03:10:42.445Z,116.40
2018-12-27T03:11:42.422Z,99.80
2018-12-27T03:12:42.426Z,113.90
2018-12-27T03:13:42.407Z,129.90
2018-12-27T03:14:42.420Z,105.60
2018-12-27T03:15:42.374Z,124.30
2018-12-27T03:16:42.374Z,135.10
2018-12-27T03:17:42.370Z,118.00
2018-12-27T03:18:42.349Z,147.90
2018-12-27T03:19:42.374Z,147.10
2018-12-27T03:20:42.334Z,155.40
2018-12-27T03:21:42.321Z,125.70
2018-12-27T03:22:42.310Z,136.70
2018-12-27T03:23:42.300Z,135.40
2018-12-27T03:24:42.299Z,120.00
2018-12-27T03:25:42.280Z,130.20
2018-12-27T03:26:42.263Z,111.50
2018-12-27T03:27:42.259Z,144.40
2018-12-27T03:28:42.252Z,127.20
2018-12-27T03:29:42.252Z,116.00
2018-12-27T03:30:42.219Z,171.10
2018-12-27T03:31:42.219Z,136.80
2018-12-27T03:32:42.204Z,136.60
2018-12-27T03:33:42.191Z,101.60
2018-12-27T03:34:42.197Z,148.30
2018-12-27T03:35:42.174Z,136.00
2018-12-27T03:36:42.164Z,102.60
2018-12-27T03:37:42.163Z,112.90
2018-12-27T03:38:42.133Z,139.00
2018-12-27T03:39:42.149Z,152.30
2018-12-27T03:40:42.133Z,145.60
2018-12-27T03:41:42.108Z,105.30
2018-12-27T03:42:42.085Z,159.70
2018-12-27T03:43:42.075Z,128.60
2018-12-27T03:44:42.077Z,113.50
2018-12-27T03:45:42.072Z,138.00
2018-12-27T03:46:42.065Z,125.40
2018-12-27T03:47:42.036Z,106.30
2018-12-27T03:48:42.026Z,185.60
2018-12-27T03:49:42.022Z,145.80
2018-12-27T03:50:42.010Z,165.50
2018-12-27T03:51:41.992Z,206.50
2018-12-27T03:52:41.984Z,198.50
2018-12-27T03:53:41.980Z,330.10
2018-12-27T03:54:41.999Z,163.40
2018-12-27T03:55:41.949Z,149.30
2018-12-27T03:56:41.936Z,206.00
2018-12-27T03:57:41.924Z,193.40
2018-12-27T03:58:41.919Z,195.30
2018-12-27T03:59:41.905Z,156.30
2018-12-27T04:00:41.911Z,135.50
2018-12-27T04:01:41.882Z,169.00
2018-12-27T04:02:41.877Z,164.40
2018-12-27T04:03:41.852Z,122.20
2018-12-27T04:04:41.856Z,105.80
2018-12-27T04:05:41.865Z,110.30
2018-12-27T04:06:41.824Z,146.90
2018-12-27T04:07:42.753Z,118.60
2018-12-27T04:08:41.811Z,133.60
2018-12-27T04:09:41.796Z,131.30
2018-12-27T04:10:41.805Z,102.90
2018-12-27T04:11:41.786Z,90.40
2018-12-27T04:12:41.766Z,96.20
2018-12-27T04:13:41.769Z,109.70
2018-12-27T04:14:41.758Z,103.50
2018-12-27T04:15:41.769Z,81.90
2018-12-27T04:16:41.719Z,103.20
2018-12-27T04:18:50.947Z,87.90
2018-12-27T04:19:51.916Z,94.20
2018-12-27T04:20:51.940Z,97.90
2018-12-27T04:21:51.909Z,101.40
2018-12-27T04:22:51.894Z,97.30
2018-12-27T04:23:51.880Z,106.00
2018-12-27T04:24:51.874Z,93.80
2018-12-27T04:25:51.873Z,85.80
2018-12-27T04:26:51.845Z,70.40
2018-12-27T04:27:51.846Z,98.70
2018-12-27T04:28:51.827Z,89.40
2018-12-27T04:29:51.816Z,84.70
2018-12-27T04:30:51.835Z,84.70
2018-12-27T04:31:51.793Z,64.10
2018-12-27T04:32:51.788Z,76.90
2018-12-27T04:33:51.779Z,79.60
2018-12-27T04:34:51.757Z,64.20
2018-12-27T04:35:51.786Z,68.00
2018-12-27T04:36:51.754Z,81.10
2018-12-27T04:37:51.733Z,84.10
2018-12-27T04:38:51.728Z,75.40
2018-12-27T04:39:51.735Z,71.10
2018-12-27T04:40:51.730Z,77.70
2018-12-27T04:41:51.699Z,102.80
2018-12-27T04:42:51.677Z,63.00
2018-12-27T04:43:51.680Z,90.30
2018-12-27T04:44:51.662Z,79.50
2018-12-27T04:45:51.664Z,88.00
2018-12-27T04:46:51.639Z,81.60
2018-12-27T04:47:51.620Z,88.90
2018-12-27T04:48:51.621Z,93.40
2018-12-27T04:49:51.606Z,104.30
2018-12-27T04:50:51.623Z,98.40
2018-12-27T04:51:51.588Z,89.90
2018-12-27T04:52:51.571Z,100.70
2018-12-27T04:53:51.556Z,106.30
2018-12-27T04:54:51.557Z,102.70
2018-12-27T04:55:51.581Z,116.60
2018-12-27T04:56:51.547Z,101.00
2018-12-27T04:57:51.529Z,90.40
2018-12-27T04:58:51.504Z,101.10
2018-12-27T04:59:51.499Z,125.80
2018-12-27T05:00:51.507Z,116.40
2018-12-27T05:01:51.473Z,149.20
2018-12-27T05:02:51.455Z,123.00
2018-12-27T05:03:51.457Z,124.30
2018-12-27T05:04:51.439Z,172.90
2018-12-27T05:05:51.466Z,163.20
2018-12-27T05:06:51.419Z,135.00
2018-12-27T05:07:51.405Z,111.40
2018-12-27T05:08:51.401Z,110.90
2018-12-27T05:09:51.383Z,101.30
2018-12-27T05:10:51.411Z,105.00
2018-12-27T05:11:51.378Z,134.70
2018-12-27T05:12:51.359Z,114.60
2018-12-27T05:13:51.347Z,154.40
2018-12-27T05:14:51.335Z,131.70
2018-12-27T05:15:51.340Z,120.00
2018-12-27T05:16:51.326Z,119.00
2018-12-27T05:17:51.292Z,128.00
2018-12-27T05:18:51.283Z,126.50
2018-12-27T05:19:51.271Z,136.40
2018-12-27T05:20:51.296Z,138.80
2018-12-27T05:21:51.261Z,111.40
2018-12-27T05:22:51.239Z,116.30
2018-12-27T05:23:51.232Z,119.20
2018-12-27T05:24:51.217Z,107.90
2018-12-27T05:25:51.253Z,106.60
2018-12-27T05:26:51.207Z,118.90
2018-12-27T05:27:51.188Z,92.20
2018-12-27T05:28:51.174Z,77.60
2018-12-27T05:29:51.172Z,94.70
2018-12-27T05:30:51.176Z,86.50
2018-12-27T05:31:51.777Z,98.90
2018-12-27T05:32:51.135Z,109.40
2018-12-27T05:33:51.124Z,104.30
2018-12-27T05:34:51.105Z,105.80
2018-12-27T05:35:51.115Z,89.10
2018-12-27T05:36:51.093Z,87.80
2018-12-27T05:37:51.073Z,78.30
2018-12-27T05:38:51.064Z,75.40
2018-12-27T05:39:51.053Z,87.60
2018-12-27T05:40:51.070Z,62.70
2018-12-27T05:41:51.046Z,64.50
2018-12-27T05:42:51.018Z,59.70
2018-12-27T05:43:51.014Z,71.30
2018-12-27T05:44:50.991Z,67.90
2018-12-27T05:45:50.983Z,73.70
2018-12-27T05:46:51.004Z,70.50
2018-12-27T05:47:50.958Z,79.00
2018-12-27T05:48:50.960Z,83.30
2018-12-27T05:49:50.942Z,80.10
2018-12-27T05:50:50.931Z,79.00
2018-12-27T05:51:50.947Z,83.10
2018-12-27T05:52:50.925Z,85.00
2018-12-27T05:53:50.906Z,78.40
2018-12-27T05:54:51.218Z,74.00
2018-12-27T05:55:50.884Z,78.10
2018-12-27T05:56:50.892Z,86.90
2018-12-27T05:57:50.864Z,76.60
2018-12-27T05:58:50.843Z,83.60
2018-12-27T05:59:50.834Z,79.00
2018-12-27T06:00:50.815Z,59.20
2018-12-27T06:01:50.837Z,78.90
2018-12-27T06:02:50.807Z,58.30
2018-12-27T06:03:50.793Z,74.30
2018-12-27T06:04:50.778Z,61.60
2018-12-27T06:05:50.781Z,74.40
2018-12-27T06:06:50.773Z,58.30
2018-12-27T06:07:50.753Z,78.00
2018-12-27T06:08:50.732Z,66.10
2018-12-27T06:09:50.715Z,73.80
2018-12-27T06:10:50.709Z,77.40
2018-12-27T06:11:50.713Z,68.70
2018-12-27T06:12:50.687Z,68.90
2018-12-27T06:13:50.676Z,67.50
2018-12-27T06:14:50.664Z,62.20
2018-12-27T06:15:50.648Z,65.00
2018-12-27T06:16:50.669Z,57.00
2018-12-27T06:17:50.643Z,63.00
2018-12-27T06:19:59.827Z,66.50
2018-12-27T06:21:00.807Z,61.20
2018-12-27T06:22:00.826Z,67.70
2018-12-27T06:23:00.784Z,68.20
2018-12-27T06:24:00.780Z,61.20
2018-12-27T06:25:00.765Z,53.20
2018-12-27T06:26:00.756Z,64.40
2018-12-27T06:27:00.762Z,65.90
2018-12-27T06:28:00.739Z,59.60
2018-12-27T06:29:00.714Z,70.80
2018-12-27T06:30:02.463Z,69.80
2018-12-27T06:31:00.692Z,68.40
2018-12-27T06:32:00.705Z,65.80
2018-12-27T06:33:00.679Z,73.30
2018-12-27T06:34:00.672Z,68.60
2018-12-27T06:35:00.644Z,64.40
2018-12-27T06:36:00.641Z,61.60
2018-12-27T06:37:00.652Z,71.30
2018-12-27T06:38:00.612Z,67.10
2018-12-27T06:39:00.611Z,64.00
2018-12-27T06:40:00.592Z,65.50
2018-12-27T06:41:00.587Z,64.40
2018-12-27T06:42:00.602Z,68.50
2018-12-27T06:43:00.567Z,68.60
2018-12-27T06:44:00.559Z,61.10
2018-12-27T06:45:00.542Z,63.00
2018-12-27T06:46:00.524Z,62.10
2018-12-27T06:47:00.534Z,64.80
2018-12-27T06:48:00.510Z,64.50
2018-12-27T06:49:00.488Z,59.90
2018-12-27T06:50:00.588Z,62.20
2018-12-27T06:51:00.476Z,65.30
2018-12-27T06:52:00.493Z,58.20
2018-12-27T06:53:00.463Z,61.00
2018-12-27T06:54:00.449Z,57.40
2018-12-27T06:55:00.436Z,56.40
2018-12-27T06:56:00.425Z,61.00
2018-12-27T06:57:00.436Z,58.60
2018-12-27T06:58:00.407Z,53.20
2018-12-27T06:59:00.392Z,57.50
2018-12-27T07:00:00.384Z,55.40
2018-12-27T07:01:00.378Z,56.40
2018-12-27T07:02:00.381Z,51.20
2018-12-27T07:03:00.348Z,51.80
2018-12-27T07:04:00.336Z,51.40
2018-12-27T07:05:00.319Z,50.70
2018-12-27T07:06:00.321Z,54.40
2018-12-27T07:07:00.315Z,55.40
2018-12-27T07:08:00.294Z,50.60
2018-12-27T07:09:00.278Z,54.00
2018-12-27T07:10:00.266Z,51.40
2018-12-27T07:11:00.258Z,51.60
2018-12-27T07:12:00.270Z,50.00
2018-12-27T07:13:00.230Z,49.80
2018-12-27T07:14:00.227Z,51.20
2018-12-27T07:15:00.219Z,52.30
2018-12-27T07:16:00.205Z,51.30
2018-12-27T07:17:00.209Z,46.50
2018-12-27T07:18:00.189Z,47.20
2018-12-27T07:19:00.172Z,42.30
2018-12-27T07:20:00.159Z,46.60
2018-12-27T07:21:00.145Z,47.50
2018-12-27T07:22:00.159Z,48.80
2018-12-27T07:23:00.134Z,44.90
2018-12-27T07:24:00.116Z,51.50
2018-12-27T07:25:00.241Z,47.20
2018-12-27T07:26:00.097Z,42.00
2018-12-27T07:27:00.113Z,36.30
2018-12-27T07:28:00.075Z,35.60
2018-12-27T07:29:00.076Z,44.50
2018-12-27T07:30:00.231Z,46.50
2018-12-27T07:31:00.039Z,40.50
2018-12-27T07:32:00.027Z,42.30
2018-12-27T07:33:00.026Z,40.10
2018-12-27T07:34:00.014Z,41.70
2018-12-27T07:35:00.008Z,42.40
2018-12-27T07:35:59.981Z,41.20
2018-12-27T07:36:59.969Z,41.20
2018-12-27T07:37:59.995Z,43.10
2018-12-27T07:38:59.954Z,43.10
2018-12-27T07:39:59.939Z,43.50
2018-12-27T07:40:59.924Z,42.10
2018-12-27T07:41:59.917Z,46.50
2018-12-27T07:42:59.929Z,34.60
2018-12-27T07:43:59.903Z,36.60
2018-12-27T07:44:59.893Z,33.70
2018-12-27T07:45:59.874Z,46.50
2018-12-27T07:46:59.870Z,41.20
2018-12-27T07:47:59.872Z,52.50
2018-12-27T07:48:59.854Z,41.70
2018-12-27T07:49:59.833Z,49.40
2018-12-27T07:50:59.823Z,39.60
2018-12-27T07:51:59.816Z,46.90
2018-12-27T07:52:59.820Z,39.90
2018-12-27T07:53:59.800Z,39.50
2018-12-27T07:54:59.784Z,48.50
2018-12-27T07:55:59.764Z,44.40
2018-12-27T07:56:59.750Z,43.90
2018-12-27T07:57:59.771Z,46.50
2018-12-27T07:58:59.743Z,43.30
2018-12-27T07:59:59.733Z,44.00
2018-12-27T08:00:59.716Z,42.00
2018-12-27T08:01:59.700Z,43.60
2018-12-27T08:02:59.709Z,39.60
2018-12-27T08:03:59.679Z,38.80
2018-12-27T08:05:04.158Z,41.40
2018-12-27T08:05:59.661Z,36.50
2018-12-27T08:06:59.655Z,39.60
2018-12-27T08:07:59.666Z,40.00
2018-12-27T08:08:59.639Z,38.30
2018-12-27T08:09:59.644Z,38.30
2018-12-27T08:10:59.607Z,39.00
2018-12-27T08:11:59.605Z,41.00
2018-12-27T08:12:59.608Z,41.90
2018-12-27T08:13:59.570Z,40.50
2018-12-27T08:14:59.561Z,39.80
2018-12-27T08:15:59.557Z,38.80
2018-12-27T08:16:59.607Z,39.50
2018-12-27T08:17:59.550Z,41.50
2018-12-27T08:18:59.527Z,41.00
